Haines Airport
PAHN : now visible

Airfield :











YOU CAN JOIN US ON...

 
LOGIN :

Register | Disclaimer

   EN    FR    IT 

 









Legend :    VFR   Marginal VFR   IFR   Intensive IFR   Very Intensive IFR
Visi :
Ceiling :
>= 8 km
>= 3000ft
5 to 8 km
1000 to 3000 ft
1500m to 5 km
500 to 1000 ft
800 to 1500m
200 to 500 ft
< 800m
< 200 ft
Symbols :   Thunderstorms  Fog  Heavy snow  Heavy precipitations  Wind > 20 kt






- Airport Elevation : 15 ft
- IATA code : HNS


PAHN - Haines

CURRENT METAR :
  • 181754Z AUTO 14006KT 10SM OVC041 14/11 A3006 RMK AO2 SLP180 T01440106 10150 20117 50003 TSNO

EXPIRED METARs :
  • 181654Z AUTO 11003KT 10SM OVC038 14/10 A3006 RMK AO2 SLP181 T01440100 TSNO
  • 181554Z AUTO 27003KT 10SM OVC041 14/10 A3005 RMK AO2 SLP178 T01390100 TSNO
  • 181515Z AUTO 29004KT 10SM SCT027 OVC042 14/10 A3005 RMK AO2 T01390100 TSNO
  • 181505Z AUTO 29005KT 10SM BKN027 OVC042 14/10 A3005 RMK AO2 T01390100 TSNO
  • 181454Z AUTO 28004KT 10SM SCT027 OVC042 13/10 A3005 RMK AO2 SLP177 T01330100 50004 TSNO
  • 181354Z AUTO 29005KT 10SM OVC042 12/09 A3005 RMK AO2 SLP178 T01220094 TSNO

TAF PAHN
Valid from the 18 at 18:00 until the 19 at 18:00 UTC


181729Z 1818/1918 12007KT P6SM OVC035
FM182200 12011KT P6SM SCT040
FM190800 10005KT P6SM OVC035 AMD LTD TO CLD VIS AND WIND
PAZA FIR / North America



MET'MAP, your aeronautical weather chart ! - Copyright ORBIFLY December 2007 - Disclaimer

ORBIFLY MET'MAP TEAM :

Programming & Development : Alexandra Zaïnal
Original concept : Baudouin d'Aumeries
Technical & hardware support : Manuel Goepfert
Assistance : Marc-Olivier Méhu




SOURCES & CREDITS :

   NOAA       Earth
Advisory